Genco Spirit — A8WP5 — position and weather

sailwx.info

Track history (hours):
 
Tides and Currents Weather Stations Pressure Air Temp Water Temp Dewpoint Dewpoint Depression Visibility Wind Speed Wind Dir Waves Ship Positions

Genco Spirit

Last reported at 2017-Nov-16 22:36 UTC. Time now 2017-Nov-20 00:32 UTC.
Position N 16°36' W 062°45'.

Length 180 m; draft 8.3 m.

Type: Cargo ship. MMSI: 636014799.

Date/timePositionNaut miles runAvg speedWind from/ knotsBaromVisibWave heightAir tempDewpointWater temp
2017-Nov-16 22:36N 16°36' W 062°45'314.4
2017-Nov-16 22:23N 16°34' W 062°42'514.4
2017-Nov-16 22:00N 16°31' W 062°38'714.2
2017-Nov-16 21:30N 16°26' W 062°32'713.9
2017-Nov-16 21:00N 16°22' W 062°27'713.8
2017-Nov-16 20:30N 16°17' W 062°21'714.0
2017-Nov-16 19:59N 16°13' W 062°15'3314.4
2017-Nov-16 17:42N 15°52' W 061°49'313.8
2017-Nov-16 17:29N 15°50' W 061°46'714.0
2017-Nov-16 17:00N 15°46' W 061°41'714.6
2017-Nov-16 16:30N 15°44' W 061°34'  
Track history (hours):
 
Tides and Currents Weather Stations Pressure Air Temp Water Temp Dewpoint Dewpoint Depression Visibility Wind Speed Wind Dir Waves Ship Positions

Genco Spirit

Last reported at 2017-Nov-16 22:36 UTC. Time now 2017-Nov-20 00:32 UTC.
Position N 16°36' W 062°45'.

Length 180 m; draft 8.3 m.

Type: Cargo ship. MMSI: 636014799.

Date/timePositionNaut miles runAvg speedWind from/ knotsBaromVisibWave heightAir tempDewpointWater temp
2017-Nov-16 22:36N 16°36' W 062°45'314.4
2017-Nov-16 22:23N 16°34' W 062°42'514.4
2017-Nov-16 22:00N 16°31' W 062°38'714.2
2017-Nov-16 21:30N 16°26' W 062°32'713.9
2017-Nov-16 21:00N 16°22' W 062°27'713.8
2017-Nov-16 20:30N 16°17' W 062°21'714.0
2017-Nov-16 19:59N 16°13' W 062°15'3314.4
2017-Nov-16 17:42N 15°52' W 061°49'313.8
2017-Nov-16 17:29N 15°50' W 061°46'714.0
2017-Nov-16 17:00N 15°46' W 061°41'714.6
2017-Nov-16 16:30N 15°44' W 061°34'  

Dump ship's entire track history